Time;durP1;ratioP1;P1;durP2;ratioP2;P2;SDS_P1;SDS_P2;PMS_P1;PMS_P2;Temp;Humidity;BMP_temperature;BMP_pressure;BME280_temperature;BME280_humidity;BME280_pressure;Samples;Min_cycle;Max_cycle;Signal;HPM_P1;HPM_P2
2023/07/20 00:01:25;;;;;;;11.75;3.00;;;;;;;26.12;44.93;94943.78;4971537;28;20038;-78
2023/07/20 00:03:57;;;;;;;10.05;3.00;;;;;;;26.07;44.35;94905.31;4971265;28;20421;-78
2023/07/20 00:06:27;;;;;;;11.30;2.90;;;;;;;26.52;44.09;94942.13;5038397;28;20033;-79
2023/07/20 00:08:54;;;;;;;11.10;2.72;;;;;;;26.69;43.83;94933.28;4996569;28;20039;-79
2023/07/20 00:11:19;;;;;;;13.10;2.88;;;;;;;26.52;44.01;94888.50;4972433;28;20099;-79
2023/07/20 00:13:45;;;;;;;12.82;2.78;;;;;;;26.56;43.96;94887.72;4970782;28;20066;-79
2023/07/20 00:16:10;;;;;;;16.80;3.22;;;;;;;26.59;43.49;94903.28;4972550;28;20038;-78
2023/07/20 00:18:35;;;;;;;11.65;3.05;;;;;;;26.49;44.08;94921.91;4970915;28;20039;-79
2023/07/20 00:21:01;;;;;;;10.57;2.90;;;;;;;26.76;44.15;94944.19;4971355;28;20054;-78
2023/07/20 00:23:27;;;;;;;16.05;3.72;;;;;;;26.70;44.37;94923.16;4971734;28;20034;-78
2023/07/20 00:25:52;;;;;;;10.90;2.72;;;;;;;26.70;44.59;94944.94;4972276;28;20434;-78
2023/07/20 00:28:18;;;;;;;13.27;3.10;;;;;;;26.54;44.59;94931.66;4972125;28;20039;-78
2023/07/20 00:30:43;;;;;;;12.77;3.17;;;;;;;26.83;44.01;94944.22;5009426;28;20032;-78
2023/07/20 00:33:10;;;;;;;11.95;2.83;;;;;;;26.87;44.07;94925.94;5033074;28;20042;-78
2023/07/20 00:35:37;;;;;;;12.90;2.63;;;;;;;26.88;44.46;94926.72;4970310;28;20501;-78
2023/07/20 00:38:03;;;;;;;11.93;2.92;;;;;;;27.07;44.60;94959.09;4970480;28;20077;-78
2023/07/20 00:40:28;;;;;;;6.55;2.45;;;;;;;26.96;45.38;94949.31;5030394;28;20043;-78
2023/07/20 00:42:54;;;;;;;13.52;3.00;;;;;;;26.97;46.24;94948.16;5009160;28;20184;-78
2023/07/20 00:45:19;;;;;;;11.68;3.13;;;;;;;27.03;46.19;94943.91;4970130;28;20041;-78
2023/07/20 00:47:45;;;;;;;17.55;3.38;;;;;;;27.02;46.65;94939.63;4970151;28;20137;-78
2023/07/20 00:50:10;;;;;;;14.63;2.88;;;;;;;26.91;46.60;94914.34;4969648;28;20035;-78
2023/07/20 00:52:39;;;;;;;14.45;2.70;;;;;;;26.95;47.22;94937.66;4970629;28;20066;-78
2023/07/20 00:55:06;;;;;;;9.98;2.40;;;;;;;26.83;46.78;94900.69;4969986;28;20123;-78
2023/07/20 00:57:32;;;;;;;14.32;2.42;;;;;;;26.83;46.76;94892.53;4969994;28;20571;-78
2023/07/20 00:59:57;;;;;;;12.77;2.65;;;;;;;26.99;46.89;94911.25;4971506;28;20035;-79
2023/07/20 01:02:23;;;;;;;11.73;2.33;;;;;;;26.81;47.34;94915.81;4971620;28;20030;-78
2023/07/20 01:04:48;;;;;;;17.58;2.85;;;;;;;26.91;47.05;94923.28;4971714;28;20497;-78
2023/07/20 01:07:23;;;;;;;15.50;3.33;;;;;;;26.93;47.20;94929.09;4969814;28;20471;-78
2023/07/20 01:09:54;;;;;;;11.10;3.25;;;;;;;26.71;47.42;94911.88;4970288;28;20549;-78
2023/07/20 01:12:27;;;;;;;;;;;;;;;26.82;47.90;94939.16;4970887;28;20062;-78
2023/07/20 01:14:54;;;;;;;11.88;3.08;;;;;;;26.74;48.34;94932.91;4970166;28;19979;-78
2023/07/20 01:17:19;;;;;;;13.35;3.00;;;;;;;26.75;47.80;94930.97;4971781;28;20038;-78
2023/07/20 01:19:45;;;;;;;11.80;3.35;;;;;;;26.76;47.63;94929.81;4971393;28;20030;-78
2023/07/20 01:22:35;;;;;;;6.47;2.50;;;;;;;26.86;47.80;94945.38;4970388;28;20038;-78
2023/07/20 01:25:19;;;;;;;10.88;3.17;;;;;;;26.75;47.89;94926.28;4971227;28;20035;-78
2023/07/20 01:27:59;;;;;;;8.20;2.47;;;;;;;26.71;48.15;94925.50;4970758;28;20042;-78
2023/07/20 01:30:39;;;;;;;11.82;2.38;;;;;;;26.63;47.73;94932.06;4971312;28;20446;-78
2023/07/20 01:33:07;;;;;;;11.07;2.45;;;;;;;26.49;47.41;94927.34;4970362;28;20543;-78
2023/07/20 01:35:34;;;;;;;13.05;3.30;;;;;;;26.38;47.85;94921.06;4969618;28;20043;-78
2023/07/20 01:38:00;;;;;;;10.52;2.67;;;;;;;26.21;47.89;94889.09;4971006;28;20553;-78
2023/07/20 01:40:26;;;;;;;18.88;3.22;;;;;;;26.37;47.84;94924.16;4969866;28;20074;-78
2023/07/20 01:42:53;;;;;;;19.95;3.50;;;;;;;26.21;47.88;94926.38;4970276;28;20506;-78
2023/07/20 01:45:19;;;;;;;11.20;3.38;;;;;;;26.16;48.26;94930.22;4971511;28;20039;-78
2023/07/20 01:47:44;;;;;;;14.13;2.97;;;;;;;26.11;48.02;94917.75;4968540;28;20054;-78
2023/07/20 01:50:10;;;;;;;16.05;3.28;;;;;;;26.20;47.93;94932.97;4970112;28;20035;-78
2023/07/20 01:52:35;;;;;;;12.25;2.85;;;;;;;26.10;48.38;94923.56;4970618;28;20038;-78
2023/07/20 01:55:04;;;;;;;11.40;2.22;;;;;;;26.04;48.69;94935.97;4970235;28;20155;-78
2023/07/20 01:57:29;;;;;;;8.20;3.13;;;;;;;25.78;48.87;94898.13;4970544;28;20030;-78
2023/07/20 01:59:55;;;;;;;13.20;2.90;;;;;;;25.77;48.66;94885.72;4970268;28;20516;-78
2023/07/20 02:02:20;;;;;;;10.95;3.03;;;;;;;26.11;48.48;94936.00;4969759;28;20042;-78
2023/07/20 02:04:46;;;;;;;11.63;2.97;;;;;;;26.06;48.43;94923.56;4968649;28;20035;-78
2023/07/20 02:07:11;;;;;;;8.15;2.47;;;;;;;25.63;48.61;94861.94;4970057;28;20114;-78
2023/07/20 02:09:36;;;;;;;7.68;2.50;;;;;;;25.72;48.89;94876.75;4970405;28;20493;-78
2023/07/20 02:12:02;;;;;;;13.20;2.95;;;;;;;25.78;49.21;94901.63;4971672;28;20455;-78
2023/07/20 02:14:27;;;;;;;16.40;3.30;;;;;;;25.85;49.30;94901.69;4973162;28;20573;-78
2023/07/20 02:16:57;;;;;;;12.85;3.38;;;;;;;25.85;49.51;94912.56;4971455;28;20527;-78
2023/07/20 02:19:24;;;;;;;13.63;3.10;;;;;;;25.69;49.76;94888.38;4971612;28;20035;-78
2023/07/20 02:21:49;;;;;;;15.77;2.95;;;;;;;25.63;49.89;94889.09;4971328;28;20042;-78
2023/07/20 02:24:15;;;;;;;6.72;2.95;;;;;;;25.78;49.96;94915.22;4971909;28;20031;-78
2023/07/20 02:26:40;;;;;;;11.38;2.85;;;;;;;25.87;50.21;94928.44;4973602;28;20027;-78
2023/07/20 02:29:06;;;;;;;12.93;3.55;;;;;;;25.78;50.22;94909.00;4973176;28;20027;-78
2023/07/20 02:31:31;;;;;;;9.85;3.30;;;;;;;25.71;49.95;94909.69;4972779;28;20042;-78
2023/07/20 02:33:56;;;;;;;14.05;2.75;;;;;;;25.50;50.33;94874.97;4971635;28;20497;-78
2023/07/20 02:36:22;;;;;;;16.02;3.90;;;;;;;25.74;50.78;94920.59;4971278;28;20031;-78
2023/07/20 02:38:48;;;;;;;13.73;3.33;;;;;;;25.55;50.59;94888.25;4971387;28;20034;-78
2023/07/20 02:41:13;;;;;;;16.63;3.47;;;;;;;25.59;50.95;94896.44;4972860;28;20034;-78
2023/07/20 02:43:39;;;;;;;11.50;3.70;;;;;;;25.27;51.20;94847.25;4971137;28;20042;-78
2023/07/20 02:46:04;;;;;;;13.23;3.38;;;;;;;25.58;51.27;94903.78;4970990;28;20446;-78
2023/07/20 02:48:30;;;;;;;9.90;2.63;;;;;;;25.45;51.54;94880.00;4972787;28;20042;-78
2023/07/20 02:50:55;;;;;;;13.63;3.42;;;;;;;25.22;51.83;94858.47;4971397;28;20042;-78
2023/07/20 02:53:21;;;;;;;13.25;2.92;;;;;;;25.32;51.75;94874.84;4971272;28;20046;-78
2023/07/20 02:55:47;;;;;;;10.73;3.50;;;;;;;25.15;51.94;94861.91;4970540;28;20497;-79
2023/07/20 02:58:12;;;;;;;13.10;3.50;;;;;;;24.98;51.83;94847.00;4971439;28;20121;-78
2023/07/20 03:00:38;;;;;;;11.40;3.60;;;;;;;24.76;51.88;94809.94;4971221;28;20062;-78
2023/07/20 03:03:03;;;;;;;12.38;3.15;;;;;;;24.46;51.92;94779.41;4971000;28;20049;-78
2023/07/20 03:05:29;;;;;;;12.95;4.07;;;;;;;25.14;51.88;94884.75;4970542;28;20139;-78
2023/07/20 03:07:56;;;;;;;10.95;3.30;;;;;;;25.14;51.97;94873.13;4971201;28;20039;-79
2023/07/20 03:10:21;;;;;;;16.63;3.38;;;;;;;25.34;51.76;94902.38;4971117;28;20027;-78
2023/07/20 03:12:47;;;;;;;14.93;3.42;;;;;;;25.32;51.76;94906.66;4970564;28;20199;-78
2023/07/20 03:15:12;;;;;;;12.90;3.75;;;;;;;24.87;51.85;94832.50;4970064;28;20031;-78
2023/07/20 03:17:37;;;;;;;11.15;3.55;;;;;;;25.30;51.98;94901.59;4972298;28;20038;-78
2023/07/20 03:20:05;;;;;;;11.02;2.95;;;;;;;24.96;52.14;94867.50;4972400;28;20417;-78
2023/07/20 03:22:30;;;;;;;14.90;4.03;;;;;;;25.00;52.35;94876.47;4971067;28;20037;-78
2023/07/20 03:24:56;;;;;;;15.07;3.67;;;;;;;25.14;52.61;94906.47;4972051;28;20039;-78
2023/07/20 03:27:21;;;;;;;13.73;3.78;;;;;;;25.19;52.74;94906.13;4970570;28;20030;-78
2023/07/20 03:29:46;;;;;;;14.00;3.88;;;;;;;24.74;52.72;94842.06;4971908;28;20509;-78
2023/07/20 03:32:12;;;;;;;15.57;3.75;;;;;;;24.99;51.44;94889.25;4970585;28;20039;-78
2023/07/20 03:34:37;;;;;;;12.45;3.38;;;;;;;25.15;50.89;94916.16;4971622;28;20031;-78
2023/07/20 03:37:04;;;;;;;18.20;3.95;;;;;;;25.11;51.37;94885.50;4975894;28;20031;-78
2023/07/20 03:39:30;;;;;;;16.90;3.40;;;;;;;25.08;51.31;94888.97;5057271;28;20034;-78
2023/07/20 03:41:57;;;;;;;9.60;3.70;;;;;;;24.95;50.99;94877.56;4971325;28;20023;-78
2023/07/20 03:44:22;;;;;;;14.73;2.97;;;;;;;24.93;51.09;94879.91;4971088;28;20023;-78
2023/07/20 03:46:48;;;;;;;22.98;3.90;;;;;;;25.25;50.50;94928.28;4969973;28;20029;-78
2023/07/20 03:49:13;;;;;;;16.52;4.43;;;;;;;24.75;50.66;94868.03;4971795;28;20538;-78
2023/07/20 03:51:40;;;;;;;15.40;3.92;;;;;;;24.90;51.17;94906.94;4971914;28;20035;-78
2023/07/20 03:54:05;;;;;;;9.75;3.35;;;;;;;25.07;50.53;94913.75;4971556;28;20057;-79
2023/07/20 03:56:35;;;;;;;14.98;4.35;;;;;;;24.77;50.50;94865.75;4971490;28;20031;-78
2023/07/20 03:59:00;;;;;;;13.35;3.95;;;;;;;24.94;50.85;94886.88;4970434;28;20104;-78
2023/07/20 04:01:26;;;;;;;14.35;3.47;;;;;;;24.72;51.08;94857.16;4970189;28;20031;-79
2023/07/20 04:03:51;;;;;;;16.48;4.47;;;;;;;24.82;50.97;94873.53;4969684;28;20039;-78
2023/07/20 04:06:17;;;;;;;17.88;3.85;;;;;;;25.11;50.85;94915.34;4969986;28;20035;-78
2023/07/20 04:08:43;;;;;;;14.05;3.88;;;;;;;24.98;50.73;94886.91;4971428;28;20486;-78
2023/07/20 04:11:08;;;;;;;19.30;3.40;;;;;;;25.15;50.76;94913.44;4953776;28;20115;-78
2023/07/20 04:13:34;;;;;;;19.85;3.38;;;;;;;24.64;51.07;94829.19;4971340;28;20063;-79
2023/07/20 04:16:00;;;;;;;13.35;3.08;;;;;;;24.92;51.18;94878.34;4971371;28;20038;-78
2023/07/20 04:18:25;;;;;;;9.48;3.85;;;;;;;25.08;51.20;94883.53;4970334;28;20537;-78
2023/07/20 04:20:52;;;;;;;16.63;3.55;;;;;;;25.32;50.80;94907.44;4970859;28;20051;-78
2023/07/20 04:23:18;;;;;;;14.38;3.40;;;;;;;25.39;50.64;94912.13;4970840;28;20112;-78
2023/07/20 04:25:43;;;;;;;10.18;3.25;;;;;;;25.37;50.55;94909.78;4971138;28;20039;-78
2023/07/20 04:28:09;;;;;;;10.73;3.03;;;;;;;25.40;50.69;94904.78;4971490;28;20035;-78
2023/07/20 04:30:36;;;;;;;12.95;4.15;;;;;;;25.34;51.24;94910.53;4971109;28;20047;-78
2023/07/20 04:33:02;;;;;;;19.45;3.95;;;;;;;25.02;52.08;94893.16;4969342;28;20043;-79
2023/07/20 04:35:48;;;;;;;10.85;3.88;;;;;;;25.29;51.59;94910.88;4969338;28;20038;-79
2023/07/20 04:38:17;;;;;;;17.88;4.15;;;;;;;25.32;51.49;94903.94;4969168;28;20043;-78
2023/07/20 04:40:48;;;;;;;15.52;4.05;;;;;;;24.89;51.48;94832.16;4969191;28;20070;-78
2023/07/20 04:43:17;;;;;;;10.33;3.30;;;;;;;25.34;51.69;94896.16;4969049;28;20118;-78
2023/07/20 04:45:43;;;;;;;15.68;3.67;;;;;;;24.90;51.49;94831.81;4968981;28;20282;-78
2023/07/20 04:48:14;;;;;;;11.82;3.75;;;;;;;25.29;51.57;94889.16;4968539;28;20413;-78
2023/07/20 04:50:44;;;;;;;13.35;3.92;;;;;;;25.15;51.62;94870.03;4990047;28;20027;-78
2023/07/20 04:53:10;;;;;;;12.02;4.10;;;;;;;25.42;51.69;94902.44;4958757;28;20072;-78
2023/07/20 04:55:37;;;;;;;14.65;4.55;;;;;;;25.35;51.36;94884.94;4994876;28;20372;-79
2023/07/20 04:58:03;;;;;;;14.10;4.55;;;;;;;25.30;51.73;94868.22;4964454;28;20039;-78
2023/07/20 05:00:29;;;;;;;20.30;4.80;;;;;;;25.44;51.50;94873.00;4968573;28;20513;-78
2023/07/20 05:02:55;;;;;;;15.55;3.95;;;;;;;25.47;51.82;94881.19;4978314;28;20412;-78
2023/07/20 05:05:21;;;;;;;13.80;4.07;;;;;;;25.41;51.55;94871.81;4969911;28;20035;-79
2023/07/20 05:07:46;;;;;;;13.35;4.07;;;;;;;25.49;51.31;94894.38;4952911;28;20425;-78
2023/07/20 05:10:12;;;;;;;14.07;4.55;;;;;;;25.67;50.82;94903.47;5056275;28;20036;-78
2023/07/20 05:12:37;;;;;;;18.63;3.92;;;;;;;25.63;50.62;94897.25;4974126;28;20095;-78
2023/07/20 05:15:03;;;;;;;20.55;4.90;;;;;;;25.71;50.90;94913.19;4970205;28;20101;-79
2023/07/20 05:17:29;;;;;;;17.13;4.60;;;;;;;25.64;50.30;94893.34;4968472;28;20050;-78
2023/07/20 05:19:54;;;;;;;15.90;4.53;;;;;;;25.51;50.32;94860.25;4955986;28;20039;-78
2023/07/20 05:22:20;;;;;;;18.05;4.55;;;;;;;25.84;49.75;94899.34;4950745;29;20036;-78
2023/07/20 05:24:45;;;;;;;12.80;3.90;;;;;;;25.72;49.78;94881.38;4954849;28;20045;-79
2023/07/20 05:27:11;;;;;;;17.00;4.40;;;;;;;25.78;49.33;94890.78;4967975;28;20023;-78
2023/07/20 05:29:36;;;;;;;13.40;4.43;;;;;;;25.61;49.55;94859.59;4966989;28;20496;-79
2023/07/20 05:32:02;;;;;;;14.65;4.10;;;;;;;26.02;48.93;94911.09;4968315;28;20108;-78
2023/07/20 05:34:28;;;;;;;13.82;4.78;;;;;;;26.09;49.09;94919.31;4968529;28;20133;-79
2023/07/20 05:37:09;;;;;;;15.13;4.53;;;;;;;26.05;48.88;94896.75;5022766;28;20038;-78
2023/07/20 05:39:34;;;;;;;15.98;4.15;;;;;;;26.11;49.04;94901.47;4981974;28;20030;-78
2023/07/20 05:42:00;;;;;;;13.05;4.03;;;;;;;26.12;49.01;94902.25;4968445;28;20408;-82
2023/07/20 05:44:25;;;;;;;14.05;4.65;;;;;;;26.08;49.04;94904.94;4967910;28;20041;-82
2023/07/20 05:46:51;;;;;;;16.92;3.92;;;;;;;25.78;49.15;94876.41;4966125;28;20417;-81
2023/07/20 05:49:16;;;;;;;16.30;5.55;;;;;;;26.01;49.23;94915.00;4969441;28;20509;-81
2023/07/20 05:51:41;;;;;;;23.95;5.07;;;;;;;25.73;49.32;94913.59;4972933;28;20038;-81
2023/07/20 05:54:07;;;;;;;19.67;4.72;;;;;;;26.00;48.88;94925.06;5064715;28;20116;-81
2023/07/20 05:56:33;;;;;;;14.88;4.50;;;;;;;26.12;48.63;94927.47;4969388;28;20041;-80
2023/07/20 05:58:58;;;;;;;17.23;4.90;;;;;;;25.57;48.65;94863.41;4970692;28;20031;-81
2023/07/20 06:01:27;;;;;;;19.05;5.35;;;;;;;25.90;49.19;94925.78;4996500;28;20468;-80
2023/07/20 06:03:53;;;;;;;19.10;5.32;;;;;;;26.07;48.84;94910.75;5039499;28;20038;-81
2023/07/20 06:06:18;;;;;;;16.55;5.00;;;;;;;26.10;48.56;94908.03;4970830;28;20481;-80
2023/07/20 06:08:44;;;;;;;18.17;5.40;;;;;;;26.08;48.83;94915.81;4969249;28;20045;-81
2023/07/20 06:11:10;;;;;;;17.10;5.10;;;;;;;25.36;48.75;94812.44;4969143;28;20034;-81
2023/07/20 06:13:35;;;;;;;15.23;4.88;;;;;;;25.82;48.59;94853.53;4969184;28;20203;-81
2023/07/20 06:16:01;;;;;;;19.00;5.88;;;;;;;25.84;48.60;94875.69;4957863;28;20036;-81
2023/07/20 06:18:28;;;;;;;14.45;4.88;;;;;;;25.91;48.58;94915.69;5033595;28;20066;-81
2023/07/20 06:20:53;;;;;;;21.15;4.93;;;;;;;26.14;48.61;94905.38;4997434;28;20428;-81
2023/07/20 06:23:19;;;;;;;16.77;5.00;;;;;;;26.16;48.69;94888.69;4969223;28;20034;-81
2023/07/20 06:25:45;;;;;;;15.13;5.07;;;;;;;25.81;48.17;94838.38;4970940;28;20062;-81
2023/07/20 06:28:11;;;;;;;20.95;4.55;;;;;;;26.32;47.91;94892.66;4970594;28;20076;-81
2023/07/20 06:30:37;;;;;;;19.60;5.53;;;;;;;26.43;47.92;94895.44;4968854;28;20066;-81
2023/07/20 06:33:02;;;;;;;22.88;5.32;;;;;;;26.43;48.01;94879.13;4968941;28;20089;-81
2023/07/20 06:35:28;;;;;;;18.23;5.93;;;;;;;26.42;47.81;94864.75;4970704;28;20118;-81
2023/07/20 06:37:53;;;;;;;19.55;5.13;;;;;;;26.38;47.40;94858.53;4989713;28;20039;-81
2023/07/20 06:40:19;;;;;;;13.40;4.70;;;;;;;26.74;47.09;94899.47;5044519;28;20062;-81
2023/07/20 06:42:44;;;;;;;15.10;4.95;;;;;;;26.39;47.04;94841.06;4967993;28;20069;-81
2023/07/20 06:45:10;;;;;;;19.58;5.15;;;;;;;26.60;47.31;94864.84;4967270;28;20145;-81
2023/07/20 06:47:42;;;;;;;19.10;4.97;;;;;;;26.27;47.81;94876.72;4968372;28;20455;-81
2023/07/20 06:50:08;;;;;;;18.05;5.63;;;;;;;26.27;47.45;94848.75;4968846;28;20547;-82
2023/07/20 06:52:34;;;;;;;15.27;5.28;;;;;;;26.29;46.67;94868.97;4969706;28;20034;-81
2023/07/20 06:55:00;;;;;;;26.80;6.40;;;;;;;26.43;47.70;94882.63;4969601;28;20106;-82
2023/07/20 06:57:25;;;;;;;19.85;7.68;;;;;;;26.36;47.43;94860.84;4969962;28;20500;-82
2023/07/20 06:59:51;;;;;;;13.07;5.47;;;;;;;26.72;46.72;94893.63;4969986;28;20038;-81
2023/07/20 07:02:17;;;;;;;24.75;6.07;;;;;;;26.88;47.20;94913.13;4967467;28;20469;-81
2023/07/20 07:04:42;;;;;;;14.88;6.03;;;;;;;26.80;47.26;94912.31;4968863;28;20043;-81
2023/07/20 07:07:09;;;;;;;24.40;5.70;;;;;;;26.85;47.43;94920.09;4967139;28;20121;-81
2023/07/20 07:09:34;;;;;;;22.55;6.60;;;;;;;27.09;47.18;94915.16;4968569;28;20046;-81
2023/07/20 07:12:00;;;;;;;27.70;6.28;;;;;;;26.88;46.37;94891.34;4968364;28;20035;-81
2023/07/20 07:14:25;;;;;;;19.80;6.10;;;;;;;27.15;45.87;94922.56;4969577;28;20055;-82
2023/07/20 07:16:51;;;;;;;17.27;5.97;;;;;;;27.18;45.77;94918.28;4969927;28;20070;-82
2023/07/20 07:19:16;;;;;;;22.42;5.65;;;;;;;27.10;45.35;94955.59;4970145;28;20027;-82
2023/07/20 07:21:42;;;;;;;20.13;5.40;;;;;;;26.59;45.30;94898.63;4969233;28;20039;-79
2023/07/20 07:24:07;;;;;;;17.40;5.35;;;;;;;26.94;45.80;94962.53;4972642;28;20413;-79
2023/07/20 07:26:33;;;;;;;16.73;5.00;;;;;;;26.76;46.95;94971.38;4971438;28;20418;-79
2023/07/20 07:28:58;;;;;;;22.27;5.30;;;;;;;26.71;46.35;94954.63;5004244;28;20073;-79
2023/07/20 07:31:30;;;;;;;17.77;4.80;;;;;;;26.56;46.13;94950.28;4970980;28;20091;-79
2023/07/20 07:33:55;;;;;;;21.45;4.72;;;;;;;26.49;46.18;94943.66;4971906;28;20035;-79
2023/07/20 07:36:21;;;;;;;15.95;5.03;;;;;;;26.55;46.59;94941.34;4971662;28;20516;-79
2023/07/20 07:38:46;;;;;;;17.05;4.75;;;;;;;26.73;46.62;94944.94;4973045;28;20121;-79
2023/07/20 07:41:11;;;;;;;18.63;5.35;;;;;;;26.11;46.79;94863.41;4972085;28;20034;-78
2023/07/20 07:43:38;;;;;;;18.83;4.95;;;;;;;26.55;47.21;94944.06;4962927;28;20069;-78
2023/07/20 07:46:04;;;;;;;19.08;5.75;;;;;;;26.69;46.80;94936.00;4971451;28;20050;-79
2023/07/20 07:48:29;;;;;;;21.17;6.00;;;;;;;26.78;47.29;94939.13;4970984;28;20029;-79
2023/07/20 07:50:55;;;;;;;18.38;5.32;;;;;;;26.92;46.84;94941.16;4959609;28;20031;-79
2023/07/20 07:53:20;;;;;;;23.48;7.05;;;;;;;26.63;47.52;94885.03;4990367;28;20645;-79
2023/07/20 07:55:48;;;;;;;22.45;6.22;;;;;;;26.78;47.03;94890.16;4972121;28;20030;-79
2023/07/20 07:58:14;;;;;;;21.00;6.57;;;;;;;27.05;46.35;94914.38;4970482;28;20026;-79
2023/07/20 08:00:39;;;;;;;18.98;5.38;;;;;;;26.83;47.12;94919.72;4971908;28;20045;-79
2023/07/20 08:03:07;;;;;;;22.02;4.93;;;;;;;26.79;47.27;94915.41;4970467;28;20069;-79
2023/07/20 08:05:34;;;;;;;13.25;4.82;;;;;;;26.98;46.56;94895.31;4967595;28;20034;-79
2023/07/20 08:08:00;;;;;;;18.27;5.70;;;;;;;27.03;46.90;94933.03;4971496;28;20485;-79
2023/07/20 08:10:26;;;;;;;21.48;5.15;;;;;;;26.91;47.01;94947.78;4971993;28;20057;-79
2023/07/20 08:12:52;;;;;;;18.02;5.25;;;;;;;26.82;47.85;94966.34;4970297;28;20475;-79
2023/07/20 08:15:17;;;;;;;19.20;4.65;;;;;;;26.65;47.78;94958.88;4954719;28;20485;-79
2023/07/20 08:17:44;;;;;;;21.10;5.68;;;;;;;26.50;49.02;94958.03;4974578;28;20118;-79
2023/07/20 08:20:12;;;;;;;14.55;4.55;;;;;;;26.45;49.49;94953.75;5062207;28;20047;-78
2023/07/20 08:22:39;;;;;;;16.17;4.68;;;;;;;26.64;49.41;94963.53;4968399;28;20513;-79
2023/07/20 08:25:08;;;;;;;21.55;4.88;;;;;;;26.53;50.61;94970.88;4959458;28;20042;-79
2023/07/20 08:27:33;;;;;;;23.73;4.95;;;;;;;26.24;51.56;94956.31;4971681;28;20462;-79
2023/07/20 08:29:59;;;;;;;27.02;4.93;;;;;;;25.97;50.37;94935.91;4968428;28;20039;-79
2023/07/20 08:32:25;;;;;;;18.48;4.28;;;;;;;25.97;49.38;94950.28;4959546;28;20061;-79
2023/07/20 08:34:51;;;;;;;11.98;3.60;;;;;;;25.80;48.22;94922.97;4969895;28;20071;-79
2023/07/20 08:37:16;;;;;;;12.77;4.20;;;;;;;26.21;48.59;94959.75;4969754;28;20168;-79
2023/07/20 08:39:42;;;;;;;21.15;4.25;;;;;;;25.94;47.56;94925.81;4972121;28;20047;-79
2023/07/20 08:42:10;;;;;;;20.35;3.90;;;;;;;26.29;46.70;94968.78;4969728;28;20045;-79
2023/07/20 08:44:39;;;;;;;13.98;3.88;;;;;;;26.14;46.50;94978.75;4970693;28;20045;-79
2023/07/20 08:47:06;;;;;;;18.52;3.63;;;;;;;25.97;44.47;94941.34;4971695;28;20046;-79
2023/07/20 08:49:32;;;;;;;20.85;3.65;;;;;;;26.22;45.18;94953.19;5004139;28;20071;-79
2023/07/20 08:51:59;;;;;;;11.88;3.00;;;;;;;25.90;44.93;94916.84;4969727;28;20038;-79
2023/07/20 08:54:27;;;;;;;18.65;4.60;;;;;;;26.35;44.11;94959.88;4976496;28;20648;-79
2023/07/20 08:56:56;;;;;;;21.95;3.35;;;;;;;26.36;44.49;94936.97;5055078;28;20203;-79
2023/07/20 08:59:24;;;;;;;12.55;3.72;;;;;;;26.44;44.75;94949.47;4969899;28;20117;-79
2023/07/20 09:01:52;;;;;;;12.07;3.22;;;;;;;26.29;43.83;94930.72;4972330;28;20413;-79
2023/07/20 09:04:18;;;;;;;27.95;3.78;;;;;;;26.50;44.01;94955.31;4969994;28;20049;-79
2023/07/20 09:06:43;;;;;;;18.83;3.88;;;;;;;26.42;44.04;94935.44;4969405;28;20502;-79
2023/07/20 09:09:08;;;;;;;9.60;3.85;;;;;;;26.39;42.55;94913.69;4969950;28;20040;-79
2023/07/20 09:11:34;;;;;;;10.35;3.92;;;;;;;26.18;43.43;94878.97;4971141;28;20497;-79
2023/07/20 09:14:04;;;;;;;16.17;3.25;;;;;;;26.38;43.58;94896.59;4969200;28;20051;-79
2023/07/20 09:16:30;;;;;;;10.53;3.17;;;;;;;26.46;43.27;94921.91;4969110;28;20134;-79
2023/07/20 09:18:58;;;;;;;11.25;3.42;;;;;;;26.32;43.60;94876.34;4974826;28;20489;-79
2023/07/20 09:21:28;;;;;;;15.75;3.60;;;;;;;26.65;43.14;94928.97;4975228;28;20039;-79
2023/07/20 09:23:56;;;;;;;16.67;3.78;;;;;;;26.51;43.17;94862.47;4978412;28;20050;-79
2023/07/20 09:26:22;;;;;;;13.90;3.72;;;;;;;26.99;43.60;94915.91;5068042;28;20118;-79
2023/07/20 09:28:50;;;;;;;12.60;3.40;;;;;;;27.02;43.49;94920.56;4977247;28;20535;-79
2023/07/20 09:31:20;;;;;;;20.52;3.95;;;;;;;27.09;43.44;94898.81;4975623;28;20042;-79
2023/07/20 09:33:47;;;;;;;14.80;4.22;;;;;;;26.91;43.01;94882.47;5012634;28;20094;-79
2023/07/20 09:36:14;;;;;;;14.52;4.00;;;;;;;27.25;43.38;94900.03;5014656;28;20112;-79
2023/07/20 09:38:43;;;;;;;17.58;3.58;;;;;;;27.47;42.12;94914.44;4973946;28;20058;-79
2023/07/20 09:41:19;;;;;;;25.83;3.90;;;;;;;27.33;41.86;94879.03;4975247;28;20034;-79
2023/07/20 09:43:45;;;;;;;21.20;3.92;;;;;;;27.76;41.27;94925.41;4976618;28;20117;-79
2023/07/20 09:46:11;;;;;;;20.55;3.58;;;;;;;27.48;40.41;94888.78;4974892;28;20062;-79
2023/07/20 09:48:36;;;;;;;17.25;3.85;;;;;;;26.95;39.97;94781.78;4974399;28;20137;-78
2023/07/20 09:51:05;;;;;;;14.50;3.45;;;;;;;27.77;39.11;94891.56;4976824;28;20034;-78
2023/07/20 09:53:33;;;;;;;13.57;3.05;;;;;;;28.47;37.64;94898.84;4974854;28;20045;-78
2023/07/20 09:55:59;;;;;;;22.15;4.13;;;;;;;28.98;37.15;94848.38;4975447;28;20046;-78
2023/07/20 09:58:26;;;;;;;12.00;3.28;;;;;;;29.85;35.24;94865.28;4998132;28;20115;-79
2023/07/20 10:00:54;;;;;;;10.43;2.58;;;;;;;30.33;34.14;94860.94;5044635;28;20047;-79
2023/07/20 10:03:21;;;;;;;14.18;3.03;;;;;;;30.30;34.39;94871.50;4974242;28;20039;-79
2023/07/20 10:05:54;;;;;;;12.35;3.08;;;;;;;29.76;34.71;94848.56;4975690;28;20035;-78
2023/07/20 10:08:23;;;;;;;14.48;3.80;;;;;;;29.82;35.17;94868.84;4974583;28;20038;-78
2023/07/20 10:10:49;;;;;;;11.63;2.95;;;;;;;29.48;34.87;94848.81;4975265;28;20042;-79
2023/07/20 10:13:18;;;;;;;9.43;3.05;;;;;;;29.18;35.41;94846.69;4974668;28;20070;-81
2023/07/20 10:15:50;;;;;;;13.18;3.40;;;;;;;29.15;35.52;94855.66;4958898;28;20043;-78
2023/07/20 10:18:25;;;;;;;15.05;3.38;;;;;;;29.08;35.97;94883.00;4974285;28;20126;-79
2023/07/20 10:20:54;;;;;;;14.52;3.40;;;;;;;29.15;36.52;94870.09;4975305;28;20470;-79
2023/07/20 10:23:19;;;;;;;17.23;4.00;;;;;;;29.22;36.40;94863.03;4975063;28;20046;-80
2023/07/20 10:25:46;;;;;;;15.45;3.53;;;;;;;28.92;36.58;94863.59;4973991;28;20039;-78
2023/07/20 10:28:13;;;;;;;15.10;3.75;;;;;;;28.83;37.40;94893.28;4976143;28;20051;-79
2023/07/20 10:30:39;;;;;;;11.18;3.35;;;;;;;28.53;37.81;94848.19;4970625;28;20038;-79
2023/07/20 10:33:05;;;;;;;10.75;3.10;;;;;;;28.57;38.21;94889.84;4971114;28;20053;-78
2023/07/20 10:35:50;;;;;;;12.77;3.80;;;;;;;28.54;38.03;94833.34;4972769;28;20031;-78
2023/07/20 10:38:15;;;;;;;10.93;2.58;;;;;;;28.19;37.53;94808.94;4971326;28;20043;-78
2023/07/20 10:40:40;;;;;;;18.58;3.45;;;;;;;28.71;37.03;94880.81;4971242;28;20057;-78
2023/07/20 10:43:08;;;;;;;13.15;4.05;;;;;;;28.75;36.91;94879.69;4970324;28;20063;-79
2023/07/20 10:45:33;;;;;;;19.00;3.40;;;;;;;28.70;36.80;94882.00;4970427;28;20497;-78
2023/07/20 10:48:02;;;;;;;11.95;3.20;;;;;;;28.70;36.44;94857.44;4972014;28;20126;-79
2023/07/20 10:50:29;;;;;;;11.60;2.50;;;;;;;28.82;36.18;94798.94;4970218;28;20033;-78
2023/07/20 10:53:19;;;;;;;10.85;3.13;;;;;;;28.85;41.55;94806.31;4971778;28;20059;-78
2023/07/20 10:55:46;;;;;;;12.65;3.10;;;;;;;28.78;37.89;94835.22;4972388;28;20050;-78
2023/07/20 10:58:14;;;;;;;13.10;3.78;;;;;;;28.65;37.70;94858.63;4969579;28;20038;-78
2023/07/20 11:01:00;;;;;;;15.23;3.10;;;;;;;28.55;38.28;94788.53;4968789;28;20107;-78
2023/07/20 11:03:34;;;;;;;13.25;3.30;;;;;;;28.99;37.22;94828.84;4970311;28;20512;-79
2023/07/20 11:06:27;;;;;;;12.02;3.22;;;;;;;29.40;35.75;94820.00;4969367;28;20027;-79
2023/07/20 11:09:14;;;;;;;15.00;3.42;;;;;;;29.53;34.83;94791.00;4970930;28;20054;-79
2023/07/20 11:11:40;;;;;;;21.63;3.35;;;;;;;29.86;34.36;94786.81;4970205;28;20022;-79
2023/07/20 11:14:08;;;;;;;11.70;3.03;;;;;;;30.39;34.20;94788.97;4970179;28;20057;-79
2023/07/20 11:16:34;;;;;;;21.63;3.85;;;;;;;30.50;33.73;94756.00;4970264;28;20027;-79
2023/07/20 11:19:00;;;;;;;13.90;4.35;;;;;;;31.16;33.20;94807.53;4972086;28;20035;-79
2023/07/20 11:21:26;;;;;;;11.63;3.85;;;;;;;30.94;33.23;94780.44;4971561;28;20023;-79
2023/07/20 11:23:55;;;;;;;12.07;4.20;;;;;;;31.28;33.76;94809.69;4972049;28;20383;-79
2023/07/20 11:26:21;;;;;;;13.48;3.58;;;;;;;31.71;32.45;94801.56;4970806;28;20092;-79